<?xml version="1.0" encoding="UTF-8" standalone="no" ?>
<gpx xmlns="http://www.topografix.com/GPX/1/1" xmlns:xsi="http://www.w3.org/2001/XMLSchema-instance" xsi:schemaLocation="http://www.topografix.com/GPX/1/1 http://www.topografix.com/GPX/1/1/gpx.xsd" version="1.1" creator="VisuGPX - https://www.visugpx.com">
  <metadata>
    <name>Gigondas - Dentelles Sarrasines et Montmirail</name>
    <desc><![CDATA[Double boucle à partir de Gigondas]]></desc>
  </metadata>
  <trk>
    <name><![CDATA[TrackFollow_Gigondas (Dentelles de Montmirail), 19 déc. 2015]]></name>
    <trkseg>
      <trkpt lat="44.16341" lon="5.00274">
        <ele>238</ele>
        <time>2016-05-18T07:28:24Z</time>
      </trkpt>
      <trkpt lat="44.16341" lon="5.00274">
        <ele>238</ele>
        <time>2016-05-18T07:28:48Z</time>
      </trkpt>
      <trkpt lat="44.16309" lon="5.0032">
        <ele>244</ele>
        <time>2016-05-18T07:29:41Z</time>
      </trkpt>
      <trkpt lat="44.16307" lon="5.00392">
        <ele>232</ele>
        <time>2016-05-18T07:30:37Z</time>
      </trkpt>
      <trkpt lat="44.16273" lon="5.00437">
        <ele>250</ele>
        <time>2016-05-18T07:31:39Z</time>
      </trkpt>
      <trkpt lat="44.16233" lon="5.00472">
        <ele>248</ele>
        <time>2016-05-18T07:32:21Z</time>
      </trkpt>
      <trkpt lat="44.16184" lon="5.00454">
        <ele>252</ele>
        <time>2016-05-18T07:33:14Z</time>
      </trkpt>
      <trkpt lat="44.16141" lon="5.0042">
        <ele>253</ele>
        <time>2016-05-18T07:34:11Z</time>
      </trkpt>
      <trkpt lat="44.16095" lon="5.00384">
        <ele>275</ele>
        <time>2016-05-18T07:35:22Z</time>
      </trkpt>
      <trkpt lat="44.16065" lon="5.00332">
        <ele>272</ele>
        <time>2016-05-18T07:36:07Z</time>
      </trkpt>
      <trkpt lat="44.16015" lon="5.00331">
        <ele>281</ele>
        <time>2016-05-18T07:37:12Z</time>
      </trkpt>
      <trkpt lat="44.15977" lon="5.00373">
        <ele>287</ele>
        <time>2016-05-18T07:38:05Z</time>
      </trkpt>
      <trkpt lat="44.15953" lon="5.0043">
        <ele>299</ele>
        <time>2016-05-18T07:38:54Z</time>
      </trkpt>
      <trkpt lat="44.1594" lon="5.00492">
        <ele>306</ele>
        <time>2016-05-18T07:43:16Z</time>
      </trkpt>
      <trkpt lat="44.1594" lon="5.00557">
        <ele>307</ele>
        <time>2016-05-18T07:44:03Z</time>
      </trkpt>
      <trkpt lat="44.15944" lon="5.00622">
        <ele>339</ele>
        <time>2016-05-18T07:44:56Z</time>
      </trkpt>
      <trkpt lat="44.15937" lon="5.00685">
        <ele>338</ele>
        <time>2016-05-18T07:45:44Z</time>
      </trkpt>
      <trkpt lat="44.1593" lon="5.00747">
        <ele>335</ele>
        <time>2016-05-18T07:46:30Z</time>
      </trkpt>
      <trkpt lat="44.15921" lon="5.00812">
        <ele>351</ele>
        <time>2016-05-18T07:47:21Z</time>
      </trkpt>
      <trkpt lat="44.15926" lon="5.00874">
        <ele>356</ele>
        <time>2016-05-18T07:53:53Z</time>
      </trkpt>
      <trkpt lat="44.15945" lon="5.00931">
        <ele>364</ele>
        <time>2016-05-18T07:54:28Z</time>
      </trkpt>
      <trkpt lat="44.15916" lon="5.00882">
        <ele>365</ele>
        <time>2016-05-18T07:55:19Z</time>
      </trkpt>
      <trkpt lat="44.15865" lon="5.0087">
        <ele>376</ele>
        <time>2016-05-18T07:56:13Z</time>
      </trkpt>
      <trkpt lat="44.15817" lon="5.00878">
        <ele>380</ele>
        <time>2016-05-18T07:57:06Z</time>
      </trkpt>
      <trkpt lat="44.15782" lon="5.00927">
        <ele>395</ele>
        <time>2016-05-18T07:58:18Z</time>
      </trkpt>
      <trkpt lat="44.15743" lon="5.00976">
        <ele>403</ele>
        <time>2016-05-18T07:59:31Z</time>
      </trkpt>
      <trkpt lat="44.15721" lon="5.01034">
        <ele>416</ele>
        <time>2016-05-18T08:02:35Z</time>
      </trkpt>
      <trkpt lat="44.1572" lon="5.01108">
        <ele>430</ele>
        <time>2016-05-18T08:04:25Z</time>
      </trkpt>
      <trkpt lat="44.15769" lon="5.01134">
        <ele>445</ele>
        <time>2016-05-18T08:07:36Z</time>
      </trkpt>
      <trkpt lat="44.15808" lon="5.0109">
        <ele>459</ele>
        <time>2016-05-18T08:09:44Z</time>
      </trkpt>
      <trkpt lat="44.15769" lon="5.01126">
        <ele>446</ele>
        <time>2016-05-18T08:21:28Z</time>
      </trkpt>
      <trkpt lat="44.15718" lon="5.01145">
        <ele>432</ele>
        <time>2016-05-18T08:22:31Z</time>
      </trkpt>
      <trkpt lat="44.15675" lon="5.01172">
        <ele>439</ele>
        <time>2016-05-18T08:24:03Z</time>
      </trkpt>
      <trkpt lat="44.15635" lon="5.01211">
        <ele>448</ele>
        <time>2016-05-18T08:25:33Z</time>
      </trkpt>
      <trkpt lat="44.15594" lon="5.01254">
        <ele>464</ele>
        <time>2016-05-18T08:29:22Z</time>
      </trkpt>
      <trkpt lat="44.15562" lon="5.01301">
        <ele>478</ele>
        <time>2016-05-18T08:30:29Z</time>
      </trkpt>
      <trkpt lat="44.1554" lon="5.01362">
        <ele>495</ele>
        <time>2016-05-18T08:31:52Z</time>
      </trkpt>
      <trkpt lat="44.15516" lon="5.01417">
        <ele>512</ele>
        <time>2016-05-18T08:33:36Z</time>
      </trkpt>
      <trkpt lat="44.15479" lon="5.01466">
        <ele>525</ele>
        <time>2016-05-18T08:38:26Z</time>
      </trkpt>
      <trkpt lat="44.15457" lon="5.01523">
        <ele>535</ele>
        <time>2016-05-18T08:39:34Z</time>
      </trkpt>
      <trkpt lat="44.1547" lon="5.01583">
        <ele>537</ele>
        <time>2016-05-18T08:40:27Z</time>
      </trkpt>
      <trkpt lat="44.15471" lon="5.01647">
        <ele>546</ele>
        <time>2016-05-18T08:41:30Z</time>
      </trkpt>
      <trkpt lat="44.15468" lon="5.01713">
        <ele>549</ele>
        <time>2016-05-18T08:42:39Z</time>
      </trkpt>
      <trkpt lat="44.15461" lon="5.01777">
        <ele>555</ele>
        <time>2016-05-18T08:44:08Z</time>
      </trkpt>
      <trkpt lat="44.15462" lon="5.01845">
        <ele>557</ele>
        <time>2016-05-18T08:47:31Z</time>
      </trkpt>
      <trkpt lat="44.15481" lon="5.01906">
        <ele>554</ele>
        <time>2016-05-18T08:48:51Z</time>
      </trkpt>
      <trkpt lat="44.15474" lon="5.01977">
        <ele>555</ele>
        <time>2016-05-18T08:51:28Z</time>
      </trkpt>
      <trkpt lat="44.15464" lon="5.0204">
        <ele>571</ele>
        <time>2016-05-18T08:54:43Z</time>
      </trkpt>
      <trkpt lat="44.15489" lon="5.02095">
        <ele>556</ele>
        <time>2016-05-18T08:56:39Z</time>
      </trkpt>
      <trkpt lat="44.15464" lon="5.02039">
        <ele>565</ele>
        <time>2016-05-18T09:02:22Z</time>
      </trkpt>
      <trkpt lat="44.1543" lon="5.01991">
        <ele>531</ele>
        <time>2016-05-18T09:35:06Z</time>
      </trkpt>
      <trkpt lat="44.15401" lon="5.01942">
        <ele>514</ele>
        <time>2016-05-18T09:36:52Z</time>
      </trkpt>
      <trkpt lat="44.1535" lon="5.01923">
        <ele>479</ele>
        <time>2016-05-18T09:40:35Z</time>
      </trkpt>
      <trkpt lat="44.15306" lon="5.0194">
        <ele>454</ele>
        <time>2016-05-18T09:43:08Z</time>
      </trkpt>
      <trkpt lat="44.15271" lon="5.01986">
        <ele>438</ele>
        <time>2016-05-18T09:56:17Z</time>
      </trkpt>
      <trkpt lat="44.15225" lon="5.02003">
        <ele>446</ele>
        <time>2016-05-18T09:57:06Z</time>
      </trkpt>
      <trkpt lat="44.15215" lon="5.02071">
        <ele>473</ele>
        <time>2016-05-18T09:58:40Z</time>
      </trkpt>
      <trkpt lat="44.15209" lon="5.02136">
        <ele>467</ele>
        <time>2016-05-18T09:59:28Z</time>
      </trkpt>
      <trkpt lat="44.15176" lon="5.02195">
        <ele>450</ele>
        <time>2016-05-18T10:00:40Z</time>
      </trkpt>
      <trkpt lat="44.15151" lon="5.0225">
        <ele>454</ele>
        <time>2016-05-18T10:01:21Z</time>
      </trkpt>
      <trkpt lat="44.15129" lon="5.02308">
        <ele>457</ele>
        <time>2016-05-18T10:01:59Z</time>
      </trkpt>
      <trkpt lat="44.15109" lon="5.02371">
        <ele>455</ele>
        <time>2016-05-18T10:02:42Z</time>
      </trkpt>
      <trkpt lat="44.15094" lon="5.02434">
        <ele>456</ele>
        <time>2016-05-18T10:03:23Z</time>
      </trkpt>
      <trkpt lat="44.15085" lon="5.02498">
        <ele>460</ele>
        <time>2016-05-18T10:04:09Z</time>
      </trkpt>
      <trkpt lat="44.15069" lon="5.02561">
        <ele>468</ele>
        <time>2016-05-18T10:04:49Z</time>
      </trkpt>
      <trkpt lat="44.15053" lon="5.02623">
        <ele>456</ele>
        <time>2016-05-18T10:05:34Z</time>
      </trkpt>
      <trkpt lat="44.1504" lon="5.02691">
        <ele>458</ele>
        <time>2016-05-18T11:03:05Z</time>
      </trkpt>
      <trkpt lat="44.15032" lon="5.02763">
        <ele>452</ele>
        <time>2016-05-18T11:04:28Z</time>
      </trkpt>
      <trkpt lat="44.15016" lon="5.02824">
        <ele>449</ele>
        <time>2016-05-18T11:05:27Z</time>
      </trkpt>
      <trkpt lat="44.1501" lon="5.02899">
        <ele>428</ele>
        <time>2016-05-18T11:06:54Z</time>
      </trkpt>
      <trkpt lat="44.15019" lon="5.02973">
        <ele>430</ele>
        <time>2016-05-18T11:08:22Z</time>
      </trkpt>
      <trkpt lat="44.15038" lon="5.0304">
        <ele>422</ele>
        <time>2016-05-18T11:09:44Z</time>
      </trkpt>
      <trkpt lat="44.15085" lon="5.0307">
        <ele>422</ele>
        <time>2016-05-18T11:11:51Z</time>
      </trkpt>
      <trkpt lat="44.15096" lon="5.03139">
        <ele>402</ele>
        <time>2016-05-18T11:13:55Z</time>
      </trkpt>
      <trkpt lat="44.15113" lon="5.03198">
        <ele>398</ele>
        <time>2016-05-18T11:14:56Z</time>
      </trkpt>
      <trkpt lat="44.15126" lon="5.03269">
        <ele>393</ele>
        <time>2016-05-18T11:16:12Z</time>
      </trkpt>
      <trkpt lat="44.15142" lon="5.03331">
        <ele>374</ele>
        <time>2016-05-18T11:17:16Z</time>
      </trkpt>
      <trkpt lat="44.1515" lon="5.03395">
        <ele>365</ele>
        <time>2016-05-18T11:18:08Z</time>
      </trkpt>
      <trkpt lat="44.15163" lon="5.03457">
        <ele>369</ele>
        <time>2016-05-18T11:18:55Z</time>
      </trkpt>
      <trkpt lat="44.15199" lon="5.03405">
        <ele>356</ele>
        <time>2016-05-18T11:20:55Z</time>
      </trkpt>
      <trkpt lat="44.15191" lon="5.03339">
        <ele>352</ele>
        <time>2016-05-18T11:22:39Z</time>
      </trkpt>
      <trkpt lat="44.15235" lon="5.03303">
        <ele>347</ele>
        <time>2016-05-18T11:28:03Z</time>
      </trkpt>
      <trkpt lat="44.15282" lon="5.03281">
        <ele>362</ele>
        <time>2016-05-18T11:29:34Z</time>
      </trkpt>
      <trkpt lat="44.15315" lon="5.03237">
        <ele>377</ele>
        <time>2016-05-18T11:31:04Z</time>
      </trkpt>
      <trkpt lat="44.15335" lon="5.03173">
        <ele>372</ele>
        <time>2016-05-18T11:32:38Z</time>
      </trkpt>
      <trkpt lat="44.15285" lon="5.03182">
        <ele>379</ele>
        <time>2016-05-18T11:33:53Z</time>
      </trkpt>
      <trkpt lat="44.15247" lon="5.03148">
        <ele>384</ele>
        <time>2016-05-18T11:35:02Z</time>
      </trkpt>
      <trkpt lat="44.15242" lon="5.03084">
        <ele>381</ele>
        <time>2016-05-18T11:41:12Z</time>
      </trkpt>
      <trkpt lat="44.15237" lon="5.03019">
        <ele>381</ele>
        <time>2016-05-18T11:41:53Z</time>
      </trkpt>
      <trkpt lat="44.1523" lon="5.02952">
        <ele>385</ele>
        <time>2016-05-18T11:42:35Z</time>
      </trkpt>
      <trkpt lat="44.15217" lon="5.02884">
        <ele>392</ele>
        <time>2016-05-18T11:43:40Z</time>
      </trkpt>
      <trkpt lat="44.15209" lon="5.0282">
        <ele>394</ele>
        <time>2016-05-18T11:44:24Z</time>
      </trkpt>
      <trkpt lat="44.15217" lon="5.02758">
        <ele>403</ele>
        <time>2016-05-18T11:45:07Z</time>
      </trkpt>
      <trkpt lat="44.15223" lon="5.02693">
        <ele>401</ele>
        <time>2016-05-18T11:45:56Z</time>
      </trkpt>
      <trkpt lat="44.15227" lon="5.02627">
        <ele>395</ele>
        <time>2016-05-18T11:46:40Z</time>
      </trkpt>
      <trkpt lat="44.15228" lon="5.02563">
        <ele>412</ele>
        <time>2016-05-18T11:47:27Z</time>
      </trkpt>
      <trkpt lat="44.15253" lon="5.02502">
        <ele>425</ele>
        <time>2016-05-18T11:49:37Z</time>
      </trkpt>
      <trkpt lat="44.15242" lon="5.0244">
        <ele>434</ele>
        <time>2016-05-18T11:50:14Z</time>
      </trkpt>
      <trkpt lat="44.15248" lon="5.02374">
        <ele>436</ele>
        <time>2016-05-18T11:51:01Z</time>
      </trkpt>
      <trkpt lat="44.15254" lon="5.02309">
        <ele>439</ele>
        <time>2016-05-18T11:51:43Z</time>
      </trkpt>
      <trkpt lat="44.15255" lon="5.02241">
        <ele>438</ele>
        <time>2016-05-18T11:52:25Z</time>
      </trkpt>
      <trkpt lat="44.15218" lon="5.022">
        <ele>443</ele>
        <time>2016-05-18T12:02:48Z</time>
      </trkpt>
      <trkpt lat="44.15227" lon="5.02136">
        <ele>440</ele>
        <time>2016-05-18T12:04:50Z</time>
      </trkpt>
      <trkpt lat="44.15222" lon="5.02069">
        <ele>440</ele>
        <time>2016-05-18T12:05:45Z</time>
      </trkpt>
      <trkpt lat="44.15256" lon="5.02024">
        <ele>450</ele>
        <time>2016-05-18T12:06:37Z</time>
      </trkpt>
      <trkpt lat="44.15301" lon="5.02001">
        <ele>457</ele>
        <time>2016-05-18T12:07:24Z</time>
      </trkpt>
      <trkpt lat="44.15348" lon="5.01996">
        <ele>471</ele>
        <time>2016-05-18T12:09:31Z</time>
      </trkpt>
      <trkpt lat="44.15376" lon="5.02053">
        <ele>486</ele>
        <time>2016-05-18T12:10:48Z</time>
      </trkpt>
      <trkpt lat="44.15383" lon="5.02122">
        <ele>491</ele>
        <time>2016-05-18T12:12:02Z</time>
      </trkpt>
      <trkpt lat="44.15393" lon="5.02185">
        <ele>500</ele>
        <time>2016-05-18T12:12:46Z</time>
      </trkpt>
      <trkpt lat="44.15405" lon="5.02249">
        <ele>501</ele>
        <time>2016-05-18T12:13:36Z</time>
      </trkpt>
      <trkpt lat="44.15417" lon="5.02314">
        <ele>505</ele>
        <time>2016-05-18T12:14:20Z</time>
      </trkpt>
      <trkpt lat="44.1543" lon="5.02376">
        <ele>508</ele>
        <time>2016-05-18T12:15:03Z</time>
      </trkpt>
      <trkpt lat="44.15441" lon="5.02441">
        <ele>505</ele>
        <time>2016-05-18T12:15:46Z</time>
      </trkpt>
      <trkpt lat="44.15425" lon="5.02373">
        <ele>507</ele>
        <time>2016-05-18T12:17:54Z</time>
      </trkpt>
      <trkpt lat="44.15413" lon="5.0231">
        <ele>507</ele>
        <time>2016-05-18T12:18:34Z</time>
      </trkpt>
      <trkpt lat="44.15401" lon="5.02244">
        <ele>507</ele>
        <time>2016-05-18T12:19:14Z</time>
      </trkpt>
      <trkpt lat="44.15388" lon="5.0218">
        <ele>501</ele>
        <time>2016-05-18T12:19:53Z</time>
      </trkpt>
      <trkpt lat="44.15381" lon="5.02115">
        <ele>491</ele>
        <time>2016-05-18T12:20:31Z</time>
      </trkpt>
      <trkpt lat="44.15398" lon="5.02053">
        <ele>498</ele>
        <time>2016-05-18T12:21:51Z</time>
      </trkpt>
      <trkpt lat="44.1544" lon="5.02078">
        <ele>527</ele>
        <time>2016-05-18T12:25:01Z</time>
      </trkpt>
      <trkpt lat="44.15469" lon="5.02129">
        <ele>558</ele>
        <time>2016-05-18T12:32:57Z</time>
      </trkpt>
      <trkpt lat="44.15492" lon="5.02188">
        <ele>567</ele>
        <time>2016-05-18T12:34:38Z</time>
      </trkpt>
      <trkpt lat="44.15503" lon="5.02251">
        <ele>581</ele>
        <time>2016-05-18T12:39:15Z</time>
      </trkpt>
      <trkpt lat="44.15517" lon="5.02312">
        <ele>576</ele>
        <time>2016-05-18T12:40:16Z</time>
      </trkpt>
      <trkpt lat="44.15513" lon="5.02379">
        <ele>576</ele>
        <time>2016-05-18T12:43:11Z</time>
      </trkpt>
      <trkpt lat="44.15531" lon="5.02438">
        <ele>566</ele>
        <time>2016-05-18T12:44:07Z</time>
      </trkpt>
      <trkpt lat="44.15545" lon="5.02497">
        <ele>579</ele>
        <time>2016-05-18T12:45:08Z</time>
      </trkpt>
      <trkpt lat="44.15554" lon="5.02563">
        <ele>577</ele>
        <time>2016-05-18T12:46:55Z</time>
      </trkpt>
      <trkpt lat="44.1557" lon="5.02622">
        <ele>576</ele>
        <time>2016-05-18T12:48:03Z</time>
      </trkpt>
      <trkpt lat="44.15578" lon="5.02684">
        <ele>578</ele>
        <time>2016-05-18T12:52:06Z</time>
      </trkpt>
      <trkpt lat="44.15585" lon="5.02747">
        <ele>549</ele>
        <time>2016-05-18T13:01:34Z</time>
      </trkpt>
      <trkpt lat="44.15629" lon="5.02708">
        <ele>506</ele>
        <time>2016-05-18T13:07:02Z</time>
      </trkpt>
      <trkpt lat="44.15654" lon="5.02651">
        <ele>480</ele>
        <time>2016-05-18T13:13:27Z</time>
      </trkpt>
      <trkpt lat="44.15686" lon="5.02591">
        <ele>467</ele>
        <time>2016-05-18T13:14:51Z</time>
      </trkpt>
      <trkpt lat="44.15707" lon="5.02533">
        <ele>460</ele>
        <time>2016-05-18T13:15:53Z</time>
      </trkpt>
      <trkpt lat="44.15725" lon="5.02464">
        <ele>454</ele>
        <time>2016-05-18T13:16:56Z</time>
      </trkpt>
      <trkpt lat="44.15732" lon="5.02391">
        <ele>435</ele>
        <time>2016-05-18T13:18:04Z</time>
      </trkpt>
      <trkpt lat="44.15782" lon="5.02418">
        <ele>426</ele>
        <time>2016-05-18T13:19:05Z</time>
      </trkpt>
      <trkpt lat="44.1583" lon="5.02426">
        <ele>406</ele>
        <time>2016-05-18T13:20:25Z</time>
      </trkpt>
      <trkpt lat="44.15876" lon="5.02444">
        <ele>394</ele>
        <time>2016-05-18T13:21:37Z</time>
      </trkpt>
      <trkpt lat="44.15886" lon="5.02377">
        <ele>386</ele>
        <time>2016-05-18T13:26:28Z</time>
      </trkpt>
      <trkpt lat="44.15901" lon="5.02314">
        <ele>373</ele>
        <time>2016-05-18T13:27:14Z</time>
      </trkpt>
      <trkpt lat="44.15922" lon="5.02255">
        <ele>366</ele>
        <time>2016-05-18T13:28:07Z</time>
      </trkpt>
      <trkpt lat="44.15935" lon="5.02192">
        <ele>370</ele>
        <time>2016-05-18T13:28:48Z</time>
      </trkpt>
      <trkpt lat="44.15951" lon="5.02129">
        <ele>355</ele>
        <time>2016-05-18T13:29:35Z</time>
      </trkpt>
      <trkpt lat="44.15973" lon="5.02073">
        <ele>347</ele>
        <time>2016-05-18T13:30:19Z</time>
      </trkpt>
      <trkpt lat="44.15984" lon="5.02011">
        <ele>356</ele>
        <time>2016-05-18T13:30:59Z</time>
      </trkpt>
      <trkpt lat="44.16005" lon="5.01953">
        <ele>345</ele>
        <time>2016-05-18T13:31:40Z</time>
      </trkpt>
      <trkpt lat="44.16024" lon="5.01893">
        <ele>334</ele>
        <time>2016-05-18T13:32:27Z</time>
      </trkpt>
      <trkpt lat="44.15988" lon="5.01856">
        <ele>317</ele>
        <time>2016-05-18T13:34:35Z</time>
      </trkpt>
      <trkpt lat="44.16" lon="5.01795">
        <ele>304</ele>
        <time>2016-05-18T13:36:09Z</time>
      </trkpt>
      <trkpt lat="44.15975" lon="5.01741">
        <ele>315</ele>
        <time>2016-05-18T13:36:42Z</time>
      </trkpt>
      <trkpt lat="44.16001" lon="5.01683">
        <ele>320</ele>
        <time>2016-05-18T13:37:38Z</time>
      </trkpt>
      <trkpt lat="44.16043" lon="5.01653">
        <ele>301</ele>
        <time>2016-05-18T13:38:17Z</time>
      </trkpt>
      <trkpt lat="44.16089" lon="5.01633">
        <ele>305</ele>
        <time>2016-05-18T13:38:48Z</time>
      </trkpt>
      <trkpt lat="44.16134" lon="5.01611">
        <ele>306</ele>
        <time>2016-05-18T13:39:26Z</time>
      </trkpt>
      <trkpt lat="44.16183" lon="5.01598">
        <ele>297</ele>
        <time>2016-05-18T13:40:05Z</time>
      </trkpt>
      <trkpt lat="44.16232" lon="5.01594">
        <ele>300</ele>
        <time>2016-05-18T13:40:37Z</time>
      </trkpt>
      <trkpt lat="44.16278" lon="5.01576">
        <ele>291</ele>
        <time>2016-05-18T13:41:14Z</time>
      </trkpt>
      <trkpt lat="44.16324" lon="5.01555">
        <ele>288</ele>
        <time>2016-05-18T13:41:47Z</time>
      </trkpt>
      <trkpt lat="44.16374" lon="5.01541">
        <ele>291</ele>
        <time>2016-05-18T13:42:22Z</time>
      </trkpt>
      <trkpt lat="44.16421" lon="5.01523">
        <ele>291</ele>
        <time>2016-05-18T13:42:58Z</time>
      </trkpt>
      <trkpt lat="44.16466" lon="5.01505">
        <ele>283</ele>
        <time>2016-05-18T13:43:29Z</time>
      </trkpt>
      <trkpt lat="44.16508" lon="5.01473">
        <ele>271</ele>
        <time>2016-05-18T13:44:01Z</time>
      </trkpt>
      <trkpt lat="44.16534" lon="5.01422">
        <ele>266</ele>
        <time>2016-05-18T13:44:36Z</time>
      </trkpt>
      <trkpt lat="44.16574" lon="5.01383">
        <ele>265</ele>
        <time>2016-05-18T13:45:09Z</time>
      </trkpt>
      <trkpt lat="44.16604" lon="5.01329">
        <ele>254</ele>
        <time>2016-05-18T13:45:47Z</time>
      </trkpt>
      <trkpt lat="44.16617" lon="5.01261">
        <ele>251</ele>
        <time>2016-05-18T13:46:20Z</time>
      </trkpt>
      <trkpt lat="44.1664" lon="5.01203">
        <ele>253</ele>
        <time>2016-05-18T13:46:53Z</time>
      </trkpt>
      <trkpt lat="44.16663" lon="5.01145">
        <ele>251</ele>
        <time>2016-05-18T13:47:26Z</time>
      </trkpt>
      <trkpt lat="44.16661" lon="5.0108">
        <ele>262</ele>
        <time>2016-05-18T13:47:54Z</time>
      </trkpt>
      <trkpt lat="44.16643" lon="5.01017">
        <ele>266</ele>
        <time>2016-05-18T13:48:26Z</time>
      </trkpt>
      <trkpt lat="44.16615" lon="5.00964">
        <ele>258</ele>
        <time>2016-05-18T13:48:59Z</time>
      </trkpt>
      <trkpt lat="44.16588" lon="5.00908">
        <ele>249</ele>
        <time>2016-05-18T13:49:34Z</time>
      </trkpt>
      <trkpt lat="44.16561" lon="5.00858">
        <ele>253</ele>
        <time>2016-05-18T13:50:04Z</time>
      </trkpt>
      <trkpt lat="44.16531" lon="5.00804">
        <ele>243</ele>
        <time>2016-05-18T13:50:38Z</time>
      </trkpt>
      <trkpt lat="44.16504" lon="5.00747">
        <ele>250</ele>
        <time>2016-05-18T13:51:10Z</time>
      </trkpt>
      <trkpt lat="44.16469" lon="5.00701">
        <ele>245</ele>
        <time>2016-05-18T13:51:38Z</time>
      </trkpt>
      <trkpt lat="44.16454" lon="5.00641">
        <ele>240</ele>
        <time>2016-05-18T13:52:10Z</time>
      </trkpt>
      <trkpt lat="44.16433" lon="5.00581">
        <ele>238</ele>
        <time>2016-05-18T13:52:42Z</time>
      </trkpt>
      <trkpt lat="44.16407" lon="5.00528">
        <ele>239</ele>
        <time>2016-05-18T13:53:13Z</time>
      </trkpt>
      <trkpt lat="44.1637" lon="5.00487">
        <ele>229</ele>
        <time>2016-05-18T13:53:56Z</time>
      </trkpt>
      <trkpt lat="44.16333" lon="5.00435">
        <ele>228</ele>
        <time>2016-05-18T13:54:33Z</time>
      </trkpt>
      <trkpt lat="44.16303" lon="5.00384">
        <ele>232</ele>
        <time>2016-05-18T13:55:03Z</time>
      </trkpt>
      <trkpt lat="44.16319" lon="5.00313">
        <ele>231</ele>
        <time>2016-05-18T13:55:41Z</time>
      </trkpt>
      <trkpt lat="44.1635" lon="5.00262">
        <ele>229</ele>
        <time>2016-05-18T13:56:12Z</time>
      </trkpt>
      <trkpt lat="44.16315" lon="5.0031">
        <ele>230</ele>
        <time>2016-05-18T13:58:57Z</time>
      </trkpt>
      <trkpt lat="44.16309" lon="5.00384">
        <ele>234</ele>
        <time>2016-05-18T13:59:39Z</time>
      </trkpt>
    </trkseg>
  </trk>
</gpx>